createdAt,value
2023-05-31T00:01:44.888Z,13.53
2023-05-31T00:04:11.888Z,15.60
2023-05-31T00:06:39.220Z,13.70
2023-05-31T00:09:06.203Z,14.13
2023-05-31T00:11:33.099Z,13.67
2023-05-31T00:14:00.050Z,17.23
2023-05-31T00:17:02.918Z,14.13
2023-05-31T00:19:14.469Z,16.73
2023-05-31T00:21:41.407Z,13.43
2023-05-31T00:24:08.653Z,15.07
2023-05-31T00:26:35.565Z,14.70
2023-05-31T00:29:02.596Z,18.90
2023-05-31T00:31:30.030Z,12.70
2023-05-31T00:33:58.220Z,16.37
2023-05-31T00:36:25.621Z,20.17
2023-05-31T00:38:52.576Z,13.10
2023-05-31T00:41:19.630Z,14.63
2023-05-31T00:43:46.612Z,14.43
2023-05-31T00:46:32.814Z,13.00
2023-05-31T00:49:00.637Z,16.60
2023-05-31T00:51:30.143Z,14.33
2023-05-31T00:53:58.298Z,15.80
2023-05-31T00:56:26.019Z,13.13
2023-05-31T00:58:54.442Z,15.67
2023-05-31T01:01:22.712Z,14.40
2023-05-31T01:03:49.720Z,18.83
2023-05-31T01:06:16.632Z,15.57
2023-05-31T01:08:43.579Z,13.90
2023-05-31T01:11:37.033Z,14.00
2023-05-31T01:14:21.875Z,14.53
2023-05-31T01:16:56.110Z,19.53
2023-05-31T01:19:48.872Z,19.10
2023-05-31T01:22:37.134Z,17.30
2023-05-31T01:25:29.379Z,17.43
2023-05-31T01:28:00.065Z,12.83
2023-05-31T01:30:44.593Z,12.80
2023-05-31T01:33:14.600Z,14.87
2023-05-31T01:35:43.434Z,12.50
2023-05-31T01:38:10.610Z,14.70
2023-05-31T01:40:38.775Z,14.00
2023-05-31T01:43:07.545Z,15.37
2023-05-31T01:45:37.271Z,20.50
2023-05-31T01:48:07.265Z,15.57
2023-05-31T01:50:38.203Z,13.27
2023-05-31T01:53:05.857Z,16.10
2023-05-31T01:55:34.172Z,13.33
2023-05-31T01:58:02.877Z,12.03
2023-05-31T02:00:30.402Z,17.13
2023-05-31T02:02:58.911Z,13.87
2023-05-31T02:05:26.317Z,17.40
2023-05-31T02:07:55.512Z,13.60
2023-05-31T02:10:22.812Z,19.20
2023-05-31T02:12:54.550Z,16.53
2023-05-31T02:15:22.131Z,15.43
2023-05-31T02:17:52.262Z,14.47
2023-05-31T02:20:22.867Z,17.23
2023-05-31T02:22:50.094Z,18.03
2023-05-31T02:25:17.479Z,19.30
2023-05-31T02:27:52.835Z,16.80
2023-05-31T02:30:23.770Z,15.40
2023-05-31T02:32:51.982Z,17.13
2023-05-31T02:35:18.967Z,17.33
2023-05-31T02:37:47.901Z,16.50
2023-05-31T02:40:15.072Z,19.20
2023-05-31T02:42:43.455Z,17.90
2023-05-31T02:45:11.701Z,17.10
2023-05-31T02:47:40.661Z,24.50
2023-05-31T02:50:09.468Z,19.33
2023-05-31T02:52:37.476Z,17.07
2023-05-31T02:55:05.818Z,16.50
2023-05-31T02:57:33.002Z,19.50
2023-05-31T03:00:09.907Z,18.30
2023-05-31T03:02:36.905Z,18.40
2023-05-31T03:05:05.389Z,20.80
2023-05-31T03:07:32.627Z,22.53
2023-05-31T03:09:59.767Z,20.27
2023-05-31T03:12:26.677Z,20.90
2023-05-31T03:14:53.639Z,23.17
2023-05-31T03:17:21.474Z,20.53
2023-05-31T03:19:48.409Z,16.90
2023-05-31T03:22:16.587Z,26.27
2023-05-31T03:24:43.912Z,21.10
2023-05-31T03:27:11.030Z,27.17
2023-05-31T03:29:41.880Z,21.40
2023-05-31T03:32:09.450Z,20.83
2023-05-31T03:34:36.437Z,21.93
2023-05-31T03:37:03.490Z,23.20
2023-05-31T03:39:30.481Z,25.40
2023-05-31T03:41:57.877Z,19.47
2023-05-31T03:44:24.795Z,21.70
2023-05-31T03:46:51.784Z,25.83
2023-05-31T03:49:18.714Z,17.50
2023-05-31T03:51:46.724Z,20.67
2023-05-31T03:54:13.645Z,26.17
2023-05-31T03:56:41.242Z,27.27
2023-05-31T03:59:08.551Z,16.67
2023-05-31T04:01:35.653Z,19.97
2023-05-31T04:04:03.005Z,25.80
2023-05-31T04:06:32.659Z,20.63
2023-05-31T04:08:59.596Z,18.60
2023-05-31T04:11:27.175Z,15.97
2023-05-31T04:13:54.661Z,19.07
2023-05-31T04:16:21.715Z,15.00
2023-05-31T04:18:48.657Z,16.87
2023-05-31T04:21:15.626Z,15.07
2023-05-31T04:23:42.716Z,13.37
2023-05-31T04:26:09.847Z,21.60
2023-05-31T04:28:36.905Z,10.47
2023-05-31T04:31:05.150Z,17.67
2023-05-31T04:33:32.796Z,11.67
2023-05-31T04:36:01.957Z,9.63
2023-05-31T04:38:29.089Z,9.50
2023-05-31T04:40:58.710Z,13.03
2023-05-31T04:43:28.637Z,16.43
2023-05-31T04:45:56.645Z,11.90
2023-05-31T04:48:23.991Z,9.90
2023-05-31T04:50:50.930Z,13.17
2023-05-31T04:53:18.327Z,13.20
2023-05-31T04:55:45.287Z,10.10
2023-05-31T04:58:12.294Z,9.50
2023-05-31T05:00:39.352Z,12.13
2023-05-31T05:03:08.585Z,9.33
2023-05-31T05:05:37.055Z,11.70
2023-05-31T05:08:04.030Z,10.23
2023-05-31T05:10:30.928Z,16.13
2023-05-31T05:12:57.862Z,13.73
2023-05-31T05:15:24.824Z,12.53
2023-05-31T05:17:52.094Z,16.23
2023-05-31T05:20:20.400Z,9.27
2023-05-31T05:22:55.538Z,20.47
2023-05-31T05:25:23.646Z,14.03
2023-05-31T05:27:50.980Z,12.73
2023-05-31T05:30:18.746Z,13.33
2023-05-31T05:32:45.954Z,9.27
2023-05-31T05:35:12.949Z,9.00
2023-05-31T05:37:39.996Z,14.53
2023-05-31T05:40:08.707Z,12.93
2023-05-31T05:42:37.827Z,9.83
2023-05-31T05:45:08.837Z,10.00
2023-05-31T05:47:38.771Z,8.30
2023-05-31T05:50:06.612Z,11.93
2023-05-31T05:52:33.540Z,12.30
2023-05-31T05:55:00.430Z,11.30
2023-05-31T05:57:27.420Z,14.87
2023-05-31T05:59:54.364Z,14.73
2023-05-31T06:02:21.931Z,13.90
2023-05-31T06:04:49.011Z,13.10
2023-05-31T06:07:15.977Z,17.13
2023-05-31T06:09:43.263Z,15.20
2023-05-31T06:12:10.831Z,25.43
2023-05-31T06:14:37.767Z,12.33
2023-05-31T06:17:05.224Z,9.00
2023-05-31T06:19:32.270Z,13.03
2023-05-31T06:21:59.330Z,10.90
2023-05-31T06:24:26.300Z,13.93
2023-05-31T06:26:53.406Z,17.33
2023-05-31T06:29:20.676Z,13.57
2023-05-31T06:31:47.886Z,13.03
2023-05-31T06:34:14.929Z,9.07
2023-05-31T06:36:43.338Z,8.33
2023-05-31T06:39:10.545Z,11.10
2023-05-31T06:41:38.404Z,9.87
2023-05-31T06:44:05.457Z,7.27
2023-05-31T06:46:32.690Z,10.50
2023-05-31T06:49:11.831Z,7.60
2023-05-31T06:51:40.165Z,12.97
2023-05-31T06:54:07.382Z,7.70
2023-05-31T06:56:34.348Z,7.97
2023-05-31T06:59:01.240Z,15.83
2023-05-31T07:01:29.935Z,10.73
2023-05-31T07:03:57.046Z,7.03
2023-05-31T07:06:26.278Z,9.60
2023-05-31T07:08:53.273Z,10.47
2023-05-31T07:11:20.258Z,8.37
2023-05-31T07:13:48.317Z,7.33
2023-05-31T07:16:15.555Z,8.80
2023-05-31T07:18:42.767Z,8.73
2023-05-31T07:21:09.813Z,8.77
2023-05-31T07:23:37.509Z,8.97
2023-05-31T07:26:04.538Z,13.20
2023-05-31T07:28:31.503Z,14.90
2023-05-31T07:30:58.888Z,8.27
2023-05-31T07:33:29.492Z,10.13
2023-05-31T07:35:59.813Z,9.47
2023-05-31T07:38:26.889Z,8.87
2023-05-31T07:40:54.324Z,7.47
2023-05-31T07:43:26.293Z,8.97
2023-05-31T07:45:55.570Z,11.40
2023-05-31T07:48:22.531Z,6.07
2023-05-31T07:50:49.477Z,12.33
2023-05-31T07:53:16.863Z,8.57
2023-05-31T07:55:45.181Z,7.63
2023-05-31T07:58:15.227Z,8.80
2023-05-31T08:00:42.248Z,11.93
2023-05-31T08:03:09.209Z,6.60
2023-05-31T08:05:36.659Z,11.03
2023-05-31T08:08:04.123Z,6.20
2023-05-31T08:10:31.210Z,9.68
2023-05-31T08:12:58.337Z,6.03
2023-05-31T08:15:25.442Z,6.93
2023-05-31T08:17:52.532Z,7.85
2023-05-31T08:20:20.007Z,7.57
2023-05-31T08:22:47.152Z,13.73
2023-05-31T08:25:15.510Z,9.10
2023-05-31T08:27:42.548Z,4.13
2023-05-31T08:30:13.716Z,9.95
2023-05-31T08:32:44.368Z,6.88
2023-05-31T08:35:11.607Z,4.57
2023-05-31T08:37:39.327Z,5.85
2023-05-31T08:40:07.199Z,6.22
2023-05-31T08:43:01.338Z,7.50
2023-05-31T08:45:29.810Z,7.22
2023-05-31T08:48:18.936Z,8.70
2023-05-31T08:50:46.960Z,3.40
2023-05-31T08:53:16.764Z,4.70
2023-05-31T08:55:47.445Z,5.67
2023-05-31T08:58:15.304Z,12.40
2023-05-31T09:00:42.738Z,3.45
2023-05-31T09:03:11.362Z,3.22
2023-05-31T09:05:38.500Z,3.25
2023-05-31T09:08:06.982Z,4.50
2023-05-31T09:10:33.980Z,2.97
2023-05-31T09:13:01.214Z,6.32
2023-05-31T09:15:29.155Z,4.40
2023-05-31T09:17:58.743Z,8.73
2023-05-31T09:20:36.118Z,4.13
2023-05-31T09:23:05.082Z,17.65
2023-05-31T09:25:52.046Z,3.53
2023-05-31T09:28:23.317Z,3.95
2023-05-31T09:31:07.854Z,3.38
2023-05-31T09:33:45.396Z,5.05
2023-05-31T09:36:14.120Z,1.77
2023-05-31T09:38:42.222Z,3.23
2023-05-31T09:41:16.529Z,5.43
2023-05-31T09:43:48.217Z,1.83
2023-05-31T09:46:19.929Z,2.70
2023-05-31T09:49:10.208Z,6.73
2023-05-31T09:51:37.924Z,4.07
2023-05-31T09:54:12.675Z,5.90
2023-05-31T09:56:42.392Z,6.07
2023-05-31T09:59:09.643Z,5.87
2023-05-31T10:01:37.978Z,3.80
2023-05-31T10:04:05.911Z,11.07
2023-05-31T10:06:37.374Z,6.63
2023-05-31T10:09:05.908Z,2.67
2023-05-31T10:11:43.151Z,4.70
2023-05-31T10:14:22.792Z,3.10
2023-05-31T10:16:51.646Z,2.67
2023-05-31T10:19:34.936Z,3.67
2023-05-31T10:22:05.815Z,2.77
2023-05-31T10:24:53.927Z,7.03
2023-05-31T10:27:30.113Z,2.70
2023-05-31T10:30:06.484Z,2.73
2023-05-31T10:32:53.017Z,11.63
2023-05-31T10:35:20.904Z,3.93
2023-05-31T10:37:48.413Z,2.30
2023-05-31T10:40:24.486Z,4.53
2023-05-31T10:43:23.213Z,2.30
2023-05-31T10:45:55.230Z,8.97
2023-05-31T10:48:34.383Z,3.27
2023-05-31T10:51:03.137Z,4.93
2023-05-31T10:53:41.426Z,5.03
2023-05-31T10:56:11.325Z,2.80
2023-05-31T10:58:40.134Z,5.63
2023-05-31T11:01:10.752Z,3.73
2023-05-31T11:03:51.991Z,3.63
2023-05-31T11:06:34.103Z,3.10
2023-05-31T11:09:02.342Z,5.10
2023-05-31T11:11:49.935Z,10.63
2023-05-31T11:14:28.659Z,2.30
2023-05-31T11:17:16.719Z,7.40
2023-05-31T11:19:44.840Z,2.60
2023-05-31T11:22:16.837Z,4.20
2023-05-31T11:24:59.392Z,8.13
2023-05-31T11:27:38.852Z,3.03
2023-05-31T11:30:10.578Z,2.80
2023-05-31T11:32:58.854Z,8.77
2023-05-31T11:35:26.054Z,5.17
2023-05-31T11:38:02.213Z,2.30
2023-05-31T11:40:30.839Z,5.73
2023-05-31T11:43:06.781Z,2.90
2023-05-31T11:45:39.539Z,4.10
2023-05-31T11:48:41.540Z,3.67
2023-05-31T11:51:08.954Z,6.23
2023-05-31T11:53:35.925Z,3.20
2023-05-31T11:56:03.061Z,2.53
2023-05-31T11:58:30.063Z,2.47
2023-05-31T12:01:00.954Z,2.30
2023-05-31T12:03:29.622Z,10.90
2023-05-31T12:06:00.443Z,9.60
2023-05-31T12:08:29.673Z,4.20
2023-05-31T12:11:04.335Z,2.67
2023-05-31T12:13:31.320Z,2.90
2023-05-31T12:15:58.486Z,5.33
2023-05-31T12:18:25.825Z,3.00
2023-05-31T12:20:52.862Z,5.20
2023-05-31T12:23:20.135Z,4.27
2023-05-31T12:25:51.578Z,3.27
2023-05-31T12:28:23.053Z,4.90
2023-05-31T12:30:53.274Z,2.00
2023-05-31T12:33:21.612Z,9.93
2023-05-31T12:35:49.297Z,4.30
2023-05-31T12:38:16.845Z,4.20
2023-05-31T12:40:45.036Z,2.93
2023-05-31T12:43:19.611Z,3.20
2023-05-31T12:45:47.132Z,4.03
2023-05-31T12:48:14.348Z,4.07
2023-05-31T12:50:51.104Z,3.20
2023-05-31T12:53:18.060Z,8.73
2023-05-31T12:55:45.171Z,3.53
2023-05-31T12:58:12.265Z,10.67
2023-05-31T13:00:39.289Z,5.13
2023-05-31T13:03:14.269Z,3.43
2023-05-31T13:05:42.709Z,9.43
2023-05-31T13:08:09.837Z,3.27
2023-05-31T13:10:37.522Z,6.30
2023-05-31T13:13:05.086Z,5.63
2023-05-31T13:15:32.356Z,10.00
2023-05-31T13:17:59.427Z,4.13
2023-05-31T13:20:26.527Z,2.80
2023-05-31T13:22:53.577Z,3.53
2023-05-31T13:25:20.632Z,3.57
2023-05-31T13:27:47.568Z,3.10
2023-05-31T13:30:21.205Z,4.87
2023-05-31T13:32:49.001Z,4.77
2023-05-31T13:35:17.378Z,4.57
2023-05-31T13:37:44.562Z,6.00
2023-05-31T13:40:13.440Z,5.70
2023-05-31T13:42:40.481Z,5.67
2023-05-31T13:45:08.255Z,1.90
2023-05-31T13:47:36.412Z,5.23
2023-05-31T13:50:04.369Z,6.23
2023-05-31T13:52:31.375Z,3.00
2023-05-31T13:54:58.389Z,3.80
2023-05-31T13:57:25.354Z,4.93
2023-05-31T13:59:52.970Z,7.73
2023-05-31T14:02:20.340Z,6.90
2023-05-31T14:04:47.733Z,16.13
2023-05-31T14:07:15.708Z,6.27
2023-05-31T14:09:43.687Z,4.57
2023-05-31T14:12:12.689Z,2.70
2023-05-31T14:14:40.606Z,5.30
2023-05-31T14:17:08.869Z,2.13
2023-05-31T14:19:36.060Z,6.17
2023-05-31T14:22:03.729Z,3.97
2023-05-31T14:24:30.845Z,2.40
2023-05-31T14:26:57.889Z,2.33
2023-05-31T14:29:24.955Z,5.90
2023-05-31T14:31:52.147Z,5.43
2023-05-31T14:34:19.197Z,4.80
2023-05-31T14:36:46.679Z,7.23
2023-05-31T14:39:14.030Z,4.07
2023-05-31T14:41:41.021Z,6.10
2023-05-31T14:44:08.020Z,3.00
2023-05-31T14:46:34.982Z,2.60
2023-05-31T14:49:02.110Z,4.37
2023-05-31T14:51:29.540Z,7.13
2023-05-31T14:53:56.622Z,8.00
2023-05-31T14:56:23.599Z,5.23
2023-05-31T14:58:50.688Z,2.17
2023-05-31T15:01:17.806Z,6.40
2023-05-31T15:03:46.565Z,2.37
2023-05-31T15:06:13.712Z,6.27
2023-05-31T15:08:40.836Z,15.73
2023-05-31T15:11:07.828Z,4.07
2023-05-31T15:13:35.221Z,3.17
2023-05-31T15:16:02.217Z,3.30
2023-05-31T15:18:29.691Z,4.50
2023-05-31T15:20:56.775Z,11.53
2023-05-31T15:23:23.717Z,3.57
2023-05-31T15:25:50.789Z,9.43
2023-05-31T15:28:17.723Z,3.63
2023-05-31T15:30:44.660Z,3.10
2023-05-31T15:33:14.294Z,15.63
2023-05-31T15:35:41.635Z,6.10
2023-05-31T15:38:08.560Z,8.13
2023-05-31T15:40:35.924Z,10.10
2023-05-31T15:43:03.238Z,6.90
2023-05-31T15:45:31.237Z,8.23
2023-05-31T15:47:58.183Z,3.87
2023-05-31T15:50:25.392Z,8.07
2023-05-31T15:52:52.356Z,6.90
2023-05-31T15:55:19.524Z,2.83
2023-05-31T15:57:46.553Z,7.90
2023-05-31T16:00:14.577Z,6.13
2023-05-31T16:02:41.624Z,8.73
2023-05-31T16:05:09.957Z,2.80
2023-05-31T16:07:36.924Z,4.30
2023-05-31T16:10:05.122Z,3.00
2023-05-31T16:12:32.094Z,2.40
2023-05-31T16:15:00.520Z,2.60
2023-05-31T16:17:28.081Z,2.60
2023-05-31T16:19:55.140Z,6.27
2023-05-31T16:22:22.124Z,2.90
2023-05-31T16:24:49.660Z,5.40
2023-05-31T16:27:17.075Z,9.20
2023-05-31T16:29:44.075Z,2.23
2023-05-31T16:32:11.363Z,2.90
2023-05-31T16:34:38.388Z,5.90
2023-05-31T16:37:06.628Z,4.50
2023-05-31T16:39:35.560Z,5.83
2023-05-31T16:42:03.042Z,8.43
2023-05-31T16:44:30.019Z,3.10
2023-05-31T16:46:57.090Z,8.10
2023-05-31T16:49:24.119Z,4.90
2023-05-31T16:51:51.766Z,3.67
2023-05-31T16:54:18.967Z,2.83
2023-05-31T16:56:46.764Z,6.27
2023-05-31T16:59:13.677Z,3.47
2023-05-31T17:01:41.564Z,4.90
2023-05-31T17:04:08.582Z,2.70
2023-05-31T17:06:35.713Z,3.10
2023-05-31T17:09:02.668Z,3.00
2023-05-31T17:11:29.636Z,2.70
2023-05-31T17:13:56.589Z,3.53
2023-05-31T17:16:24.624Z,1.50
2023-05-31T17:18:53.153Z,10.10
2023-05-31T17:21:20.179Z,6.67
2023-05-31T17:23:47.154Z,6.50
2023-05-31T17:26:14.195Z,2.60
2023-05-31T17:28:41.270Z,2.70
2023-05-31T17:31:08.626Z,6.40
2023-05-31T17:33:35.565Z,4.63
2023-05-31T17:36:02.886Z,2.53
2023-05-31T17:38:29.973Z,7.17
2023-05-31T17:40:56.990Z,3.00
2023-05-31T17:43:24.200Z,4.33
2023-05-31T17:45:52.312Z,2.40
2023-05-31T17:48:19.462Z,6.10
2023-05-31T17:50:46.690Z,4.30
2023-05-31T17:53:14.136Z,3.63
2023-05-31T17:55:41.110Z,4.47
2023-05-31T17:58:08.262Z,3.10
2023-05-31T18:00:35.213Z,4.40
2023-05-31T18:03:02.332Z,4.13
2023-05-31T18:05:29.260Z,4.50
2023-05-31T18:07:56.259Z,1.83
2023-05-31T18:10:23.184Z,2.43
2023-05-31T18:12:50.184Z,5.03
2023-05-31T18:15:17.196Z,2.40
2023-05-31T18:17:44.355Z,5.37
2023-05-31T18:20:12.124Z,2.20
2023-05-31T18:22:39.068Z,2.60
2023-05-31T18:25:06.738Z,13.23
2023-05-31T18:27:33.850Z,4.80
2023-05-31T18:30:01.396Z,22.63
2023-05-31T18:32:30.443Z,31.33
2023-05-31T18:34:57.837Z,14.63
2023-05-31T18:37:26.369Z,6.87
2023-05-31T18:39:53.964Z,3.60
2023-05-31T18:42:21.026Z,11.63
2023-05-31T18:44:48.022Z,12.93
2023-05-31T18:47:14.983Z,4.60
2023-05-31T18:49:41.966Z,9.23
2023-05-31T18:52:09.998Z,4.80
2023-05-31T18:54:36.949Z,6.37
2023-05-31T18:57:04.514Z,2.70
2023-05-31T18:59:31.848Z,4.37
2023-05-31T19:02:02.314Z,6.47
2023-05-31T19:04:29.961Z,7.23
2023-05-31T19:06:56.960Z,3.07
2023-05-31T19:09:24.179Z,4.63
2023-05-31T19:11:52.362Z,3.40
2023-05-31T19:14:20.227Z,2.10
2023-05-31T19:16:47.625Z,4.33
2023-05-31T19:19:15.824Z,3.77
2023-05-31T19:21:43.100Z,4.13
2023-05-31T19:24:10.231Z,7.00
2023-05-31T19:26:37.283Z,4.30
2023-05-31T19:29:04.343Z,4.93
2023-05-31T19:31:31.758Z,6.03
2023-05-31T19:33:59.026Z,5.20
2023-05-31T19:36:29.094Z,4.07
2023-05-31T19:38:56.065Z,10.43
2023-05-31T19:41:23.105Z,5.93
2023-05-31T19:43:50.225Z,5.83
2023-05-31T19:46:24.049Z,4.23
2023-05-31T19:48:52.624Z,3.13
2023-05-31T19:51:23.054Z,3.30
2023-05-31T19:53:50.176Z,10.87
2023-05-31T19:56:17.398Z,3.87
2023-05-31T19:58:45.536Z,3.43
2023-05-31T20:01:12.543Z,4.80
2023-05-31T20:03:39.995Z,3.93
2023-05-31T20:06:07.262Z,3.17
2023-05-31T20:08:34.962Z,5.77
2023-05-31T20:11:01.903Z,2.13
2023-05-31T20:13:29.020Z,8.47
2023-05-31T20:15:56.011Z,4.97
2023-05-31T20:18:24.070Z,4.07
2023-05-31T20:20:51.980Z,6.20
2023-05-31T20:23:19.568Z,5.93
2023-05-31T20:25:46.703Z,7.23
2023-05-31T20:28:13.727Z,2.93
2023-05-31T20:30:40.860Z,4.70
2023-05-31T20:33:07.805Z,3.17
2023-05-31T20:35:34.940Z,2.80
2023-05-31T20:38:02.535Z,3.00
2023-05-31T20:40:29.624Z,6.20
2023-05-31T20:42:56.682Z,4.13
2023-05-31T20:45:24.099Z,5.33
2023-05-31T20:47:51.468Z,3.40
2023-05-31T20:50:20.141Z,2.30
2023-05-31T20:52:47.599Z,3.13
2023-05-31T20:55:15.151Z,4.77
2023-05-31T20:57:45.905Z,2.90
2023-05-31T21:00:18.562Z,2.13
2023-05-31T21:02:46.049Z,4.13
2023-05-31T21:05:13.466Z,3.93
2023-05-31T21:07:43.999Z,4.70
2023-05-31T21:10:11.500Z,5.43
2023-05-31T21:12:38.557Z,4.30
2023-05-31T21:15:06.245Z,3.30
2023-05-31T21:17:34.340Z,1.63
2023-05-31T21:20:01.392Z,3.33
2023-05-31T21:22:30.014Z,2.93
2023-05-31T21:24:57.072Z,3.47
2023-05-31T21:27:24.013Z,2.73
2023-05-31T21:29:52.671Z,9.67
2023-05-31T21:32:23.870Z,2.13
2023-05-31T21:34:51.124Z,2.53
2023-05-31T21:37:18.131Z,6.50
2023-05-31T21:39:45.072Z,3.40
2023-05-31T21:42:12.597Z,5.37
2023-05-31T21:44:39.504Z,3.83
2023-05-31T21:47:06.758Z,6.60
2023-05-31T21:49:35.445Z,4.57
2023-05-31T21:52:02.455Z,5.20
2023-05-31T21:54:29.383Z,8.00
2023-05-31T21:56:56.396Z,5.00
2023-05-31T21:59:23.403Z,2.27
2023-05-31T22:01:50.483Z,3.87
2023-05-31T22:04:17.718Z,3.30
2023-05-31T22:06:44.942Z,4.70
2023-05-31T22:09:11.948Z,2.50
2023-05-31T22:11:38.906Z,6.93
2023-05-31T22:14:05.906Z,7.13
2023-05-31T22:16:33.511Z,4.43
2023-05-31T22:19:03.632Z,5.70
2023-05-31T22:21:34.394Z,4.57
2023-05-31T22:24:01.798Z,5.00
2023-05-31T22:26:31.081Z,4.03
2023-05-31T22:28:58.456Z,8.23
2023-05-31T22:31:30.610Z,4.50
2023-05-31T22:33:57.543Z,7.40
2023-05-31T22:36:24.464Z,7.00
2023-05-31T22:38:51.393Z,32.57
2023-05-31T22:41:18.729Z,5.90
2023-05-31T22:43:45.886Z,9.23
2023-05-31T22:46:12.917Z,9.87
2023-05-31T22:48:40.062Z,6.97
2023-05-31T22:51:12.657Z,5.57
2023-05-31T22:53:40.745Z,6.70
2023-05-31T22:56:07.822Z,7.80
2023-05-31T22:58:34.789Z,8.60
2023-05-31T23:01:02.126Z,12.10
2023-05-31T23:03:29.475Z,11.90
2023-05-31T23:05:58.282Z,11.17
2023-05-31T23:08:30.494Z,5.23
2023-05-31T23:11:03.357Z,10.80
2023-05-31T23:13:33.181Z,12.30
2023-05-31T23:16:01.703Z,11.40
2023-05-31T23:18:29.052Z,9.30
2023-05-31T23:20:56.363Z,12.27
2023-05-31T23:23:24.324Z,7.77
2023-05-31T23:25:51.378Z,7.73
2023-05-31T23:28:18.460Z,8.50
2023-05-31T23:30:48.205Z,7.37
2023-05-31T23:33:17.803Z,6.40
2023-05-31T23:35:45.553Z,9.40
2023-05-31T23:38:12.530Z,15.60
2023-05-31T23:40:39.472Z,8.10
2023-05-31T23:43:06.579Z,11.13
2023-05-31T23:45:33.750Z,11.20
2023-05-31T23:48:01.202Z,11.27
2023-05-31T23:50:28.293Z,7.03
2023-05-31T23:52:55.231Z,15.83
2023-05-31T23:55:22.240Z,19.20
2023-05-31T23:57:49.568Z,8.70
